sensor_id;sensor_type;location;lat;lon;timestamp;temperature;humidity
10903;DHT22;5504;47.312;11.060;2024-02-26T00:00:30;3.40;87.30
10903;DHT22;5504;47.312;11.060;2024-02-26T00:02:56;3.30;87.10
10903;DHT22;5504;47.312;11.060;2024-02-26T00:05:21;3.40;87.50
10903;DHT22;5504;47.312;11.060;2024-02-26T00:07:47;3.40;87.40
10903;DHT22;5504;47.312;11.060;2024-02-26T00:10:14;3.40;87.30
10903;DHT22;5504;47.312;11.060;2024-02-26T00:12:40;3.40;87.50
10903;DHT22;5504;47.312;11.060;2024-02-26T00:15:07;3.40;87.30
10903;DHT22;5504;47.312;11.060;2024-02-26T00:17:33;3.40;87.30
10903;DHT22;5504;47.312;11.060;2024-02-26T00:19:59;3.30;86.90
10903;DHT22;5504;47.312;11.060;2024-02-26T00:22:26;3.30;87.00
10903;DHT22;5504;47.312;11.060;2024-02-26T00:24:52;3.30;86.60
10903;DHT22;5504;47.312;11.060;2024-02-26T00:27:18;3.50;87.10
10903;DHT22;5504;47.312;11.060;2024-02-26T00:29:44;3.50;86.30
10903;DHT22;5504;47.312;11.060;2024-02-26T00:32:09;3.30;86.40
10903;DHT22;5504;47.312;11.060;2024-02-26T00:34:35;3.40;87.00
10903;DHT22;5504;47.312;11.060;2024-02-26T00:37:02;3.30;87.20
10903;DHT22;5504;47.312;11.060;2024-02-26T00:39:27;3.50;87.20
10903;DHT22;5504;47.312;11.060;2024-02-26T00:41:53;3.40;87.40
10903;DHT22;5504;47.312;11.060;2024-02-26T00:44:19;3.40;86.60
10903;DHT22;5504;47.312;11.060;2024-02-26T00:46:45;3.30;86.30
10903;DHT22;5504;47.312;11.060;2024-02-26T00:49:10;3.20;86.60
10903;DHT22;5504;47.312;11.060;2024-02-26T00:51:36;2.70;88.30
10903;DHT22;5504;47.312;11.060;2024-02-26T00:54:02;2.80;89.00
10903;DHT22;5504;47.312;11.060;2024-02-26T00:56:28;2.90;88.80
10903;DHT22;5504;47.312;11.060;2024-02-26T00:58:53;2.90;88.30
10903;DHT22;5504;47.312;11.060;2024-02-26T01:01:19;3.00;88.40
10903;DHT22;5504;47.312;11.060;2024-02-26T01:03:45;3.00;88.30
10903;DHT22;5504;47.312;11.060;2024-02-26T01:06:11;3.00;87.90
10903;DHT22;5504;47.312;11.060;2024-02-26T01:08:37;3.10;87.80
10903;DHT22;5504;47.312;11.060;2024-02-26T01:11:03;3.20;87.80
10903;DHT22;5504;47.312;11.060;2024-02-26T01:13:29;3.20;87.80
10903;DHT22;5504;47.312;11.060;2024-02-26T01:15:55;3.00;87.40
10903;DHT22;5504;47.312;11.060;2024-02-26T01:18:20;2.90;88.00
10903;DHT22;5504;47.312;11.060;2024-02-26T01:20:46;2.90;88.40
10903;DHT22;5504;47.312;11.060;2024-02-26T01:23:12;3.00;88.30
10903;DHT22;5504;47.312;11.060;2024-02-26T01:25:38;3.00;87.90
10903;DHT22;5504;47.312;11.060;2024-02-26T01:28:05;3.10;87.70
10903;DHT22;5504;47.312;11.060;2024-02-26T01:30:31;3.10;87.20
10903;DHT22;5504;47.312;11.060;2024-02-26T01:32:57;3.10;87.10
10903;DHT22;5504;47.312;11.060;2024-02-26T01:35:23;3.00;86.80
10903;DHT22;5504;47.312;11.060;2024-02-26T01:37:48;3.00;86.60
10903;DHT22;5504;47.312;11.060;2024-02-26T01:40:14;2.70;86.50
10903;DHT22;5504;47.312;11.060;2024-02-26T01:42:45;2.80;87.30
10903;DHT22;5504;47.312;11.060;2024-02-26T01:45:16;2.70;87.50
10903;DHT22;5504;47.312;11.060;2024-02-26T01:47:49;2.70;87.60
10903;DHT22;5504;47.312;11.060;2024-02-26T01:50:15;2.70;88.10
10903;DHT22;5504;47.312;11.060;2024-02-26T01:52:42;2.70;87.60
10903;DHT22;5504;47.312;11.060;2024-02-26T01:55:08;2.70;87.60
10903;DHT22;5504;47.312;11.060;2024-02-26T01:57:34;2.60;87.40
10903;DHT22;5504;47.312;11.060;2024-02-26T01:59:59;2.50;87.50
10903;DHT22;5504;47.312;11.060;2024-02-26T02:02:25;2.50;87.70
10903;DHT22;5504;47.312;11.060;2024-02-26T02:04:52;2.50;87.60
10903;DHT22;5504;47.312;11.060;2024-02-26T02:07:19;2.60;87.90
10903;DHT22;5504;47.312;11.060;2024-02-26T02:09:46;2.70;87.80
10903;DHT22;5504;47.312;11.060;2024-02-26T02:12:12;2.80;87.40
10903;DHT22;5504;47.312;11.060;2024-02-26T02:14:37;2.80;86.40
10903;DHT22;5504;47.312;11.060;2024-02-26T02:17:03;2.80;86.40
10903;DHT22;5504;47.312;11.060;2024-02-26T02:19:29;2.70;86.60
10903;DHT22;5504;47.312;11.060;2024-02-26T02:21:55;2.70;86.80
10903;DHT22;5504;47.312;11.060;2024-02-26T02:24:20;2.60;86.50
10903;DHT22;5504;47.312;11.060;2024-02-26T02:26:46;2.50;86.50
10903;DHT22;5504;47.312;11.060;2024-02-26T02:29:13;2.60;87.10
10903;DHT22;5504;47.312;11.060;2024-02-26T02:31:39;2.50;86.60
10903;DHT22;5504;47.312;11.060;2024-02-26T02:34:05;2.50;87.10
10903;DHT22;5504;47.312;11.060;2024-02-26T02:36:31;2.50;87.00
10903;DHT22;5504;47.312;11.060;2024-02-26T02:38:57;2.50;86.90
10903;DHT22;5504;47.312;11.060;2024-02-26T02:41:23;2.50;87.30
10903;DHT22;5504;47.312;11.060;2024-02-26T02:43:49;2.50;87.70
10903;DHT22;5504;47.312;11.060;2024-02-26T02:46:14;2.40;87.90
10903;DHT22;5504;47.312;11.060;2024-02-26T02:48:41;2.40;88.20
10903;DHT22;5504;47.312;11.060;2024-02-26T02:51:07;2.50;88.30
10903;DHT22;5504;47.312;11.060;2024-02-26T02:53:33;2.40;87.80
10903;DHT22;5504;47.312;11.060;2024-02-26T02:55:58;2.40;87.90
10903;DHT22;5504;47.312;11.060;2024-02-26T02:58:24;2.30;88.00
10903;DHT22;5504;47.312;11.060;2024-02-26T03:00:50;2.40;88.50
10903;DHT22;5504;47.312;11.060;2024-02-26T03:03:16;2.40;88.50
10903;DHT22;5504;47.312;11.060;2024-02-26T03:05:42;2.50;88.50
10903;DHT22;5504;47.312;11.060;2024-02-26T03:08:08;2.50;88.50
10903;DHT22;5504;47.312;11.060;2024-02-26T03:10:34;2.40;88.20
10903;DHT22;5504;47.312;11.060;2024-02-26T03:13:00;2.20;88.80
10903;DHT22;5504;47.312;11.060;2024-02-26T03:15:25;2.30;89.10
10903;DHT22;5504;47.312;11.060;2024-02-26T03:17:51;2.20;88.70
10903;DHT22;5504;47.312;11.060;2024-02-26T03:20:17;2.10;88.80
10903;DHT22;5504;47.312;11.060;2024-02-26T03:22:44;2.20;89.10
10903;DHT22;5504;47.312;11.060;2024-02-26T03:25:11;2.40;89.50
10903;DHT22;5504;47.312;11.060;2024-02-26T03:27:36;2.60;89.00
10903;DHT22;5504;47.312;11.060;2024-02-26T03:30:02;2.50;88.40
10903;DHT22;5504;47.312;11.060;2024-02-26T03:32:29;2.50;88.10
10903;DHT22;5504;47.312;11.060;2024-02-26T03:34:55;2.40;88.20
10903;DHT22;5504;47.312;11.060;2024-02-26T03:37:21;2.70;88.60
10903;DHT22;5504;47.312;11.060;2024-02-26T03:39:47;2.60;88.30
10903;DHT22;5504;47.312;11.060;2024-02-26T03:42:13;2.70;88.10
10903;DHT22;5504;47.312;11.060;2024-02-26T03:44:38;2.70;87.70
10903;DHT22;5504;47.312;11.060;2024-02-26T03:47:04;2.60;87.80
10903;DHT22;5504;47.312;11.060;2024-02-26T03:49:30;2.60;88.10
10903;DHT22;5504;47.312;11.060;2024-02-26T03:51:55;2.70;88.40
10903;DHT22;5504;47.312;11.060;2024-02-26T03:54:22;2.70;88.00
10903;DHT22;5504;47.312;11.060;2024-02-26T03:56:47;2.60;87.90
10903;DHT22;5504;47.312;11.060;2024-02-26T03:59:13;2.60;87.50
10903;DHT22;5504;47.312;11.060;2024-02-26T04:01:39;2.50;88.00
10903;DHT22;5504;47.312;11.060;2024-02-26T04:04:04;2.50;88.40
10903;DHT22;5504;47.312;11.060;2024-02-26T04:06:30;2.50;88.40
10903;DHT22;5504;47.312;11.060;2024-02-26T04:08:56;2.40;89.00
10903;DHT22;5504;47.312;11.060;2024-02-26T04:11:21;2.40;88.90
10903;DHT22;5504;47.312;11.060;2024-02-26T04:13:47;2.50;88.90
10903;DHT22;5504;47.312;11.060;2024-02-26T04:16:16;2.50;88.60
10903;DHT22;5504;47.312;11.060;2024-02-26T04:18:42;2.40;88.10
10903;DHT22;5504;47.312;11.060;2024-02-26T04:21:08;2.30;87.80
10903;DHT22;5504;47.312;11.060;2024-02-26T04:23:34;2.40;88.20
10903;DHT22;5504;47.312;11.060;2024-02-26T04:25:59;2.30;88.60
10903;DHT22;5504;47.312;11.060;2024-02-26T04:28:25;2.30;89.40
10903;DHT22;5504;47.312;11.060;2024-02-26T04:30:54;2.40;89.30
10903;DHT22;5504;47.312;11.060;2024-02-26T04:33:20;2.40;89.00
10903;DHT22;5504;47.312;11.060;2024-02-26T04:35:46;2.40;88.80
10903;DHT22;5504;47.312;11.060;2024-02-26T04:38:11;2.40;89.10
10903;DHT22;5504;47.312;11.060;2024-02-26T04:40:37;2.50;89.00
10903;DHT22;5504;47.312;11.060;2024-02-26T04:43:03;2.50;88.40
10903;DHT22;5504;47.312;11.060;2024-02-26T04:45:28;2.40;88.40
10903;DHT22;5504;47.312;11.060;2024-02-26T04:47:54;2.40;88.70
10903;DHT22;5504;47.312;11.060;2024-02-26T04:50:20;2.40;88.70
10903;DHT22;5504;47.312;11.060;2024-02-26T04:52:46;2.40;88.90
10903;DHT22;5504;47.312;11.060;2024-02-26T04:55:12;2.40;89.10
10903;DHT22;5504;47.312;11.060;2024-02-26T04:57:37;2.20;89.50
10903;DHT22;5504;47.312;11.060;2024-02-26T05:00:04;2.20;89.50
10903;DHT22;5504;47.312;11.060;2024-02-26T05:02:30;2.30;89.80
10903;DHT22;5504;47.312;11.060;2024-02-26T05:04:58;2.40;89.60
10903;DHT22;5504;47.312;11.060;2024-02-26T05:07:24;2.40;89.50
10903;DHT22;5504;47.312;11.060;2024-02-26T05:09:50;2.50;89.30
10903;DHT22;5504;47.312;11.060;2024-02-26T05:12:16;2.50;88.80
10903;DHT22;5504;47.312;11.060;2024-02-26T05:14:42;2.50;88.90
10903;DHT22;5504;47.312;11.060;2024-02-26T05:17:08;2.60;89.10
10903;DHT22;5504;47.312;11.060;2024-02-26T05:19:34;2.50;89.00
10903;DHT22;5504;47.312;11.060;2024-02-26T05:21:59;2.50;89.40
10903;DHT22;5504;47.312;11.060;2024-02-26T05:24:25;2.50;89.20
10903;DHT22;5504;47.312;11.060;2024-02-26T05:26:51;2.10;89.70
10903;DHT22;5504;47.312;11.060;2024-02-26T05:29:17;2.10;90.30
10903;DHT22;5504;47.312;11.060;2024-02-26T05:31:43;2.10;90.30
10903;DHT22;5504;47.312;11.060;2024-02-26T05:34:09;2.10;90.40
10903;DHT22;5504;47.312;11.060;2024-02-26T05:36:34;2.20;90.50
10903;DHT22;5504;47.312;11.060;2024-02-26T05:39:01;2.30;90.30
10903;DHT22;5504;47.312;11.060;2024-02-26T05:41:27;2.30;90.30
10903;DHT22;5504;47.312;11.060;2024-02-26T05:43:53;2.50;90.30
10903;DHT22;5504;47.312;11.060;2024-02-26T05:46:20;2.50;90.30
10903;DHT22;5504;47.312;11.060;2024-02-26T05:48:51;2.50;90.10
10903;DHT22;5504;47.312;11.060;2024-02-26T05:51:17;2.50;89.90
10903;DHT22;5504;47.312;11.060;2024-02-26T05:53:43;2.50;90.00
10903;DHT22;5504;47.312;11.060;2024-02-26T05:56:09;2.50;90.00
10903;DHT22;5504;47.312;11.060;2024-02-26T05:58:35;2.60;90.00
10903;DHT22;5504;47.312;11.060;2024-02-26T06:01:01;2.70;89.80
10903;DHT22;5504;47.312;11.060;2024-02-26T06:03:27;2.80;89.50
10903;DHT22;5504;47.312;11.060;2024-02-26T06:05:53;2.80;89.10
10903;DHT22;5504;47.312;11.060;2024-02-26T06:08:19;2.70;88.90
10903;DHT22;5504;47.312;11.060;2024-02-26T06:10:44;2.60;88.80
10903;DHT22;5504;47.312;11.060;2024-02-26T06:13:11;2.60;89.10
10903;DHT22;5504;47.312;11.060;2024-02-26T06:15:36;2.60;89.10
10903;DHT22;5504;47.312;11.060;2024-02-26T06:18:02;2.60;88.90
10903;DHT22;5504;47.312;11.060;2024-02-26T06:20:28;2.60;89.60
10903;DHT22;5504;47.312;11.060;2024-02-26T06:22:54;2.70;89.70
10903;DHT22;5504;47.312;11.060;2024-02-26T06:25:20;2.60;89.50
10903;DHT22;5504;47.312;11.060;2024-02-26T06:27:45;2.70;90.00
10903;DHT22;5504;47.312;11.060;2024-02-26T06:30:11;2.70;90.00
10903;DHT22;5504;47.312;11.060;2024-02-26T06:32:37;2.60;90.00
10903;DHT22;5504;47.312;11.060;2024-02-26T06:35:04;2.70;90.10
10903;DHT22;5504;47.312;11.060;2024-02-26T06:37:34;2.80;90.00
10903;DHT22;5504;47.312;11.060;2024-02-26T06:40:01;2.90;90.10
10903;DHT22;5504;47.312;11.060;2024-02-26T06:42:29;3.00;89.40
10903;DHT22;5504;47.312;11.060;2024-02-26T06:44:56;2.80;89.60
10903;DHT22;5504;47.312;11.060;2024-02-26T06:47:22;2.90;90.10
10903;DHT22;5504;47.312;11.060;2024-02-26T06:49:47;2.90;90.20
10903;DHT22;5504;47.312;11.060;2024-02-26T06:52:13;2.90;90.20
10903;DHT22;5504;47.312;11.060;2024-02-26T06:54:39;3.10;90.30
10903;DHT22;5504;47.312;11.060;2024-02-26T06:57:04;3.10;90.00
10903;DHT22;5504;47.312;11.060;2024-02-26T06:59:30;3.30;89.90
10903;DHT22;5504;47.312;11.060;2024-02-26T07:01:56;3.30;89.40
10903;DHT22;5504;47.312;11.060;2024-02-26T07:04:21;3.40;90.00
10903;DHT22;5504;47.312;11.060;2024-02-26T07:06:47;3.50;89.80
10903;DHT22;5504;47.312;11.060;2024-02-26T07:09:13;3.60;89.40
10903;DHT22;5504;47.312;11.060;2024-02-26T07:11:39;3.60;89.20
10903;DHT22;5504;47.312;11.060;2024-02-26T07:14:09;3.60;88.90
10903;DHT22;5504;47.312;11.060;2024-02-26T07:16:35;3.70;89.20
10903;DHT22;5504;47.312;11.060;2024-02-26T07:19:01;3.80;89.30
10903;DHT22;5504;47.312;11.060;2024-02-26T07:21:26;3.90;88.90
10903;DHT22;5504;47.312;11.060;2024-02-26T07:23:52;3.70;89.10
10903;DHT22;5504;47.312;11.060;2024-02-26T07:26:18;3.60;89.50
10903;DHT22;5504;47.312;11.060;2024-02-26T07:28:45;3.80;90.00
10903;DHT22;5504;47.312;11.060;2024-02-26T07:31:10;3.80;89.70
10903;DHT22;5504;47.312;11.060;2024-02-26T07:33:36;3.90;89.60
10903;DHT22;5504;47.312;11.060;2024-02-26T07:36:02;4.10;89.90
10903;DHT22;5504;47.312;11.060;2024-02-26T07:38:28;4.20;89.60
10903;DHT22;5504;47.312;11.060;2024-02-26T07:40:54;4.20;89.10
10903;DHT22;5504;47.312;11.060;2024-02-26T07:43:19;4.30;88.90
10903;DHT22;5504;47.312;11.060;2024-02-26T07:45:45;4.50;88.30
10903;DHT22;5504;47.312;11.060;2024-02-26T07:48:11;4.30;88.00
10903;DHT22;5504;47.312;11.060;2024-02-26T07:50:37;4.20;88.10
10903;DHT22;5504;47.312;11.060;2024-02-26T07:53:03;4.30;88.10
10903;DHT22;5504;47.312;11.060;2024-02-26T07:55:29;4.50;88.40
10903;DHT22;5504;47.312;11.060;2024-02-26T07:57:55;4.60;88.60
10903;DHT22;5504;47.312;11.060;2024-02-26T08:00:21;4.70;88.30
10903;DHT22;5504;47.312;11.060;2024-02-26T08:02:46;4.50;88.60
10903;DHT22;5504;47.312;11.060;2024-02-26T08:05:12;4.50;90.00
10903;DHT22;5504;47.312;11.060;2024-02-26T08:07:38;4.80;89.40
10903;DHT22;5504;47.312;11.060;2024-02-26T08:10:04;5.00;88.50
10903;DHT22;5504;47.312;11.060;2024-02-26T08:12:30;5.00;87.30
10903;DHT22;5504;47.312;11.060;2024-02-26T08:14:55;5.10;87.30
10903;DHT22;5504;47.312;11.060;2024-02-26T08:17:22;4.70;87.60
10903;DHT22;5504;47.312;11.060;2024-02-26T08:19:47;4.70;88.60
10903;DHT22;5504;47.312;11.060;2024-02-26T08:22:13;4.90;88.80
10903;DHT22;5504;47.312;11.060;2024-02-26T08:24:42;5.30;88.40
10903;DHT22;5504;47.312;11.060;2024-02-26T08:27:08;5.40;87.50
10903;DHT22;5504;47.312;11.060;2024-02-26T08:29:33;5.60;87.30
10903;DHT22;5504;47.312;11.060;2024-02-26T08:31:59;5.60;86.90
10903;DHT22;5504;47.312;11.060;2024-02-26T08:34:25;5.70;87.00
10903;DHT22;5504;47.312;11.060;2024-02-26T08:36:51;5.60;87.20
10903;DHT22;5504;47.312;11.060;2024-02-26T08:39:17;5.90;87.90
10903;DHT22;5504;47.312;11.060;2024-02-26T08:41:46;6.30;87.00
10903;DHT22;5504;47.312;11.060;2024-02-26T08:44:12;6.50;85.60
10903;DHT22;5504;47.312;11.060;2024-02-26T08:46:38;6.60;84.50
10903;DHT22;5504;47.312;11.060;2024-02-26T08:49:04;6.70;83.10
10903;DHT22;5504;47.312;11.060;2024-02-26T08:51:29;6.60;82.10
10903;DHT22;5504;47.312;11.060;2024-02-26T08:53:55;6.60;80.70
10903;DHT22;5504;47.312;11.060;2024-02-26T08:56:21;6.70;80.80
10903;DHT22;5504;47.312;11.060;2024-02-26T08:58:47;6.40;81.30
10903;DHT22;5504;47.312;11.060;2024-02-26T09:01:19;6.40;82.10
10903;DHT22;5504;47.312;11.060;2024-02-26T09:03:45;6.60;82.90
10903;DHT22;5504;47.312;11.060;2024-02-26T09:06:11;6.80;83.30
10903;DHT22;5504;47.312;11.060;2024-02-26T09:08:39;7.00;83.20
10903;DHT22;5504;47.312;11.060;2024-02-26T09:11:05;7.20;83.60
10903;DHT22;5504;47.312;11.060;2024-02-26T09:13:31;7.40;83.20
10903;DHT22;5504;47.312;11.060;2024-02-26T09:15:56;7.60;82.70
10903;DHT22;5504;47.312;11.060;2024-02-26T09:18:24;7.80;81.50
10903;DHT22;5504;47.312;11.060;2024-02-26T09:20:49;7.90;80.90
10903;DHT22;5504;47.312;11.060;2024-02-26T09:23:16;8.00;80.50
10903;DHT22;5504;47.312;11.060;2024-02-26T09:25:42;8.10;80.90
10903;DHT22;5504;47.312;11.060;2024-02-26T09:28:07;8.00;80.40
10903;DHT22;5504;47.312;11.060;2024-02-26T09:30:33;8.00;79.80
10903;DHT22;5504;47.312;11.060;2024-02-26T09:32:59;8.00;79.10
10903;DHT22;5504;47.312;11.060;2024-02-26T09:35:24;8.10;79.90
10903;DHT22;5504;47.312;11.060;2024-02-26T09:37:52;8.30;79.80
10903;DHT22;5504;47.312;11.060;2024-02-26T09:40:19;7.60;80.40
10903;DHT22;5504;47.312;11.060;2024-02-26T09:42:45;7.80;82.30
10903;DHT22;5504;47.312;11.060;2024-02-26T09:45:22;8.00;81.00
10903;DHT22;5504;47.312;11.060;2024-02-26T09:47:50;8.30;80.30
10903;DHT22;5504;47.312;11.060;2024-02-26T09:50:20;8.40;79.50
10903;DHT22;5504;47.312;11.060;2024-02-26T09:52:48;8.60;79.10
10903;DHT22;5504;47.312;11.060;2024-02-26T09:55:15;8.60;78.20
10903;DHT22;5504;47.312;11.060;2024-02-26T09:57:45;8.60;77.80
10903;DHT22;5504;47.312;11.060;2024-02-26T10:00:18;8.30;76.90
10903;DHT22;5504;47.312;11.060;2024-02-26T10:02:47;7.90;77.60
10903;DHT22;5504;47.312;11.060;2024-02-26T10:05:18;7.10;78.40
10903;DHT22;5504;47.312;11.060;2024-02-26T10:07:47;6.70;79.80
10903;DHT22;5504;47.312;11.060;2024-02-26T10:10:17;6.80;80.00
10903;DHT22;5504;47.312;11.060;2024-02-26T10:12:43;7.30;80.30
10903;DHT22;5504;47.312;11.060;2024-02-26T10:15:09;8.00;79.60
10903;DHT22;5504;47.312;11.060;2024-02-26T10:17:35;8.70;78.00
10903;DHT22;5504;47.312;11.060;2024-02-26T10:20:16;9.10;76.90
10903;DHT22;5504;47.312;11.060;2024-02-26T10:22:43;9.60;75.40
10903;DHT22;5504;47.312;11.060;2024-02-26T10:25:09;9.90;73.40
10903;DHT22;5504;47.312;11.060;2024-02-26T10:27:35;10.30;72.70
10903;DHT22;5504;47.312;11.060;2024-02-26T10:30:26;10.60;71.70
10903;DHT22;5504;47.312;11.060;2024-02-26T10:32:52;10.80;69.00
10903;DHT22;5504;47.312;11.060;2024-02-26T10:35:18;10.90;67.50
10903;DHT22;5504;47.312;11.060;2024-02-26T10:37:46;10.40;65.80
10903;DHT22;5504;47.312;11.060;2024-02-26T10:40:13;10.20;70.40
10903;DHT22;5504;47.312;11.060;2024-02-26T10:42:40;10.20;68.10
10903;DHT22;5504;47.312;11.060;2024-02-26T10:45:07;10.20;66.50
10903;DHT22;5504;47.312;11.060;2024-02-26T10:47:35;9.80;65.90
10903;DHT22;5504;47.312;11.060;2024-02-26T10:50:05;11.10;66.90
10903;DHT22;5504;47.312;11.060;2024-02-26T10:52:36;12.50;63.50
10903;DHT22;5504;47.312;11.060;2024-02-26T10:55:04;13.50;59.80
10903;DHT22;5504;47.312;11.060;2024-02-26T10:57:40;14.00;58.70
10903;DHT22;5504;47.312;11.060;2024-02-26T11:00:08;14.80;58.10
10903;DHT22;5504;47.312;11.060;2024-02-26T11:02:38;14.60;56.30
10903;DHT22;5504;47.312;11.060;2024-02-26T11:05:06;14.50;55.90
10903;DHT22;5504;47.312;11.060;2024-02-26T11:07:36;14.40;55.70
10903;DHT22;5504;47.312;11.060;2024-02-26T11:10:04;14.30;56.40
10903;DHT22;5504;47.312;11.060;2024-02-26T11:12:32;14.10;55.30
10903;DHT22;5504;47.312;11.060;2024-02-26T11:14:59;13.40;55.00
10903;DHT22;5504;47.312;11.060;2024-02-26T11:17:27;13.00;55.90
10903;DHT22;5504;47.312;11.060;2024-02-26T11:19:57;12.70;56.00
10903;DHT22;5504;47.312;11.060;2024-02-26T11:22:26;12.60;57.10
10903;DHT22;5504;47.312;11.060;2024-02-26T11:24:56;13.30;57.10
10903;DHT22;5504;47.312;11.060;2024-02-26T11:27:42;13.60;53.90
10903;DHT22;5504;47.312;11.060;2024-02-26T11:30:12;13.40;50.90
10903;DHT22;5504;47.312;11.060;2024-02-26T11:32:38;13.90;54.30
10903;DHT22;5504;47.312;11.060;2024-02-26T11:35:05;13.80;52.10
10903;DHT22;5504;47.312;11.060;2024-02-26T11:37:31;14.20;53.80
10903;DHT22;5504;47.312;11.060;2024-02-26T11:39:59;13.90;52.00
10903;DHT22;5504;47.312;11.060;2024-02-26T11:42:28;14.00;52.80
10903;DHT22;5504;47.312;11.060;2024-02-26T11:44:55;13.60;53.50
10903;DHT22;5504;47.312;11.060;2024-02-26T11:47:27;13.30;54.00
10903;DHT22;5504;47.312;11.060;2024-02-26T11:49:53;12.60;54.40
10903;DHT22;5504;47.312;11.060;2024-02-26T11:52:18;12.70;55.10
10903;DHT22;5504;47.312;11.060;2024-02-26T11:54:52;12.70;54.90
10903;DHT22;5504;47.312;11.060;2024-02-26T12:00:10;13.10;54.80
10903;DHT22;5504;47.312;11.060;2024-02-26T12:02:52;13.00;54.80
10903;DHT22;5504;47.312;11.060;2024-02-26T12:05:27;13.20;54.60
10903;DHT22;5504;47.312;11.060;2024-02-26T12:08:07;13.20;55.30
10903;DHT22;5504;47.312;11.060;2024-02-26T12:10:37;13.40;55.90
10903;DHT22;5504;47.312;11.060;2024-02-26T12:13:13;13.20;55.00
10903;DHT22;5504;47.312;11.060;2024-02-26T12:15:43;13.10;54.90
10903;DHT22;5504;47.312;11.060;2024-02-26T12:18:15;13.10;54.30
10903;DHT22;5504;47.312;11.060;2024-02-26T12:20:41;13.00;54.00
10903;DHT22;5504;47.312;11.060;2024-02-26T12:23:07;13.00;54.70
10903;DHT22;5504;47.312;11.060;2024-02-26T12:25:33;13.20;54.60
10903;DHT22;5504;47.312;11.060;2024-02-26T12:27:59;12.80;53.50
10903;DHT22;5504;47.312;11.060;2024-02-26T12:30:26;12.80;54.50
10903;DHT22;5504;47.312;11.060;2024-02-26T12:32:53;12.70;55.20
10903;DHT22;5504;47.312;11.060;2024-02-26T12:35:23;12.80;55.00
10903;DHT22;5504;47.312;11.060;2024-02-26T12:37:49;12.90;56.00
10903;DHT22;5504;47.312;11.060;2024-02-26T12:40:17;12.80;54.50
10903;DHT22;5504;47.312;11.060;2024-02-26T12:42:43;12.80;55.50
10903;DHT22;5504;47.312;11.060;2024-02-26T12:45:10;12.80;55.60
10903;DHT22;5504;47.312;11.060;2024-02-26T12:47:43;12.80;55.30
10903;DHT22;5504;47.312;11.060;2024-02-26T12:50:09;12.70;55.20
10903;DHT22;5504;47.312;11.060;2024-02-26T12:52:40;12.80;54.10
10903;DHT22;5504;47.312;11.060;2024-02-26T12:55:07;12.80;54.60
10903;DHT22;5504;47.312;11.060;2024-02-26T12:57:37;12.80;54.90
10903;DHT22;5504;47.312;11.060;2024-02-26T13:00:06;12.70;55.90
10903;DHT22;5504;47.312;11.060;2024-02-26T13:02:37;12.30;59.50
10903;DHT22;5504;47.312;11.060;2024-02-26T13:05:07;12.10;61.50
10903;DHT22;5504;47.312;11.060;2024-02-26T13:07:34;12.10;62.60
10903;DHT22;5504;47.312;11.060;2024-02-26T13:10:00;12.10;62.60
10903;DHT22;5504;47.312;11.060;2024-02-26T13:12:26;12.20;64.50
10903;DHT22;5504;47.312;11.060;2024-02-26T13:15:04;12.20;65.10
10903;DHT22;5504;47.312;11.060;2024-02-26T13:17:32;12.20;66.10
10903;DHT22;5504;47.312;11.060;2024-02-26T13:19:57;12.20;65.20
10903;DHT22;5504;47.312;11.060;2024-02-26T13:22:23;12.20;65.20
10903;DHT22;5504;47.312;11.060;2024-02-26T13:24:56;12.30;61.80
10903;DHT22;5504;47.312;11.060;2024-02-26T13:27:23;12.40;61.70
10903;DHT22;5504;47.312;11.060;2024-02-26T13:30:01;12.50;62.20
10903;DHT22;5504;47.312;11.060;2024-02-26T13:32:27;12.50;63.40
10903;DHT22;5504;47.312;11.060;2024-02-26T13:35:11;12.40;63.50
10903;DHT22;5504;47.312;11.060;2024-02-26T13:37:38;12.30;63.80
10903;DHT22;5504;47.312;11.060;2024-02-26T13:40:05;12.30;63.40
10903;DHT22;5504;47.312;11.060;2024-02-26T13:42:31;12.30;61.70
10903;DHT22;5504;47.312;11.060;2024-02-26T13:44:58;12.20;61.20
10903;DHT22;5504;47.312;11.060;2024-02-26T13:47:23;12.40;61.40
10903;DHT22;5504;47.312;11.060;2024-02-26T13:49:49;12.60;62.60
10903;DHT22;5504;47.312;11.060;2024-02-26T13:52:15;12.60;64.80
10903;DHT22;5504;47.312;11.060;2024-02-26T13:54:41;12.50;67.20
10903;DHT22;5504;47.312;11.060;2024-02-26T13:57:06;12.50;70.10
10903;DHT22;5504;47.312;11.060;2024-02-26T13:59:34;12.50;68.50
10903;DHT22;5504;47.312;11.060;2024-02-26T14:01:59;12.40;69.50
10903;DHT22;5504;47.312;11.060;2024-02-26T14:04:25;12.50;70.30
10903;DHT22;5504;47.312;11.060;2024-02-26T14:06:51;12.50;69.10
10903;DHT22;5504;47.312;11.060;2024-02-26T14:09:17;12.50;69.30
10903;DHT22;5504;47.312;11.060;2024-02-26T14:11:45;12.40;70.00
10903;DHT22;5504;47.312;11.060;2024-02-26T14:14:11;12.40;70.20
10903;DHT22;5504;47.312;11.060;2024-02-26T14:16:37;12.30;68.70
10903;DHT22;5504;47.312;11.060;2024-02-26T14:19:02;12.20;69.20
10903;DHT22;5504;47.312;11.060;2024-02-26T14:21:29;12.10;66.90
10903;DHT22;5504;47.312;11.060;2024-02-26T14:23:57;11.90;66.70
10903;DHT22;5504;47.312;11.060;2024-02-26T14:26:23;11.70;66.10
10903;DHT22;5504;47.312;11.060;2024-02-26T14:28:49;11.40;66.00
10903;DHT22;5504;47.312;11.060;2024-02-26T14:31:17;11.40;66.00
10903;DHT22;5504;47.312;11.060;2024-02-26T14:33:43;11.40;65.20
10903;DHT22;5504;47.312;11.060;2024-02-26T14:36:09;11.60;66.20
10903;DHT22;5504;47.312;11.060;2024-02-26T14:38:35;11.90;65.50
10903;DHT22;5504;47.312;11.060;2024-02-26T14:41:02;11.90;63.80
10903;DHT22;5504;47.312;11.060;2024-02-26T14:43:29;11.90;64.90
10903;DHT22;5504;47.312;11.060;2024-02-26T14:45:57;11.60;65.10
10903;DHT22;5504;47.312;11.060;2024-02-26T14:48:22;11.50;65.10
10903;DHT22;5504;47.312;11.060;2024-02-26T14:50:49;11.60;64.70
10903;DHT22;5504;47.312;11.060;2024-02-26T14:53:17;11.80;66.80
10903;DHT22;5504;47.312;11.060;2024-02-26T14:55:43;11.90;67.10
10903;DHT22;5504;47.312;11.060;2024-02-26T14:58:09;11.90;64.20
10903;DHT22;5504;47.312;11.060;2024-02-26T15:00:40;12.10;64.10
10903;DHT22;5504;47.312;11.060;2024-02-26T15:03:06;12.50;63.50
10903;DHT22;5504;47.312;11.060;2024-02-26T15:05:32;12.50;62.70
10903;DHT22;5504;47.312;11.060;2024-02-26T15:07:58;12.70;62.80
10903;DHT22;5504;47.312;11.060;2024-02-26T15:10:28;13.00;61.80
10903;DHT22;5504;47.312;11.060;2024-02-26T15:12:56;12.80;61.30
10903;DHT22;5504;47.312;11.060;2024-02-26T15:15:22;12.90;62.40
10903;DHT22;5504;47.312;11.060;2024-02-26T15:17:48;13.00;61.80
10903;DHT22;5504;47.312;11.060;2024-02-26T15:20:17;13.10;61.20
10903;DHT22;5504;47.312;11.060;2024-02-26T15:22:43;13.10;59.80
10903;DHT22;5504;47.312;11.060;2024-02-26T15:25:09;13.20;59.80
10903;DHT22;5504;47.312;11.060;2024-02-26T15:27:35;12.90;59.60
10903;DHT22;5504;47.312;11.060;2024-02-26T15:30:01;12.90;59.10
10903;DHT22;5504;47.312;11.060;2024-02-26T15:32:27;12.90;60.30
10903;DHT22;5504;47.312;11.060;2024-02-26T15:34:56;12.70;59.50
10903;DHT22;5504;47.312;11.060;2024-02-26T15:37:21;12.70;60.50
10903;DHT22;5504;47.312;11.060;2024-02-26T15:39:48;12.70;60.40